Aérodrome :
LOGIN :

S'inscrire | Disclaimer

   EN    FR    IT 

 










Légende :    VFR   VFR Marginal   IFR   IFR Intensif   IFR Très Intensif
Visi : 
Plafond : 
>= 8 km
>= 3000ft
5 à 8 km
1000 à 3000 ft
1500m à 5 km
500 à 1000 ft
800 à 1500m
200 à 500 ft
< 800m
< 200 ft
Symboles :   Orages  Brouillard  Fortes neiges  Fortes précipitations  Vent > 20 kt
SIGMETs :   Divers  Orages  Givrage  Turbulence  Onde Orograph.  Cendres Volcan.







- Altitude de l'aérodrome : 11 ft
- Code IATA : MJV


LELC - Murcia San Javier

DERNIER METAR :
  • 200830Z 25003KT 9000 NSC 09/09 Q1008 NOSIG

METARs EXPIRÉS :
  • 200800Z VRB02KT 8000 NSC 08/08 Q1008 NOSIG
  • 200730Z VRB02KT 7000 FEW054 08/08 Q1008 NOSIG
  • 200700Z 29003KT 8000 NSC 08/08 Q1008 NOSIG
  • 200630Z 30003KT 8000 NSC 09/08 Q1008 NOSIG
  • 200600Z 28001KT 8000 NSC 09/08 Q1008 NOSIG

TAF AMD TAF LELC
Valide du 20 à 06h jusqu'au 21 à 06h UTC


200601Z 2006/2106 25005KT 9999 FEW040 TX15/2013Z TN07/2006Z
PROB40
TEMPO 2006/2012 4000 RA BKN014
BECMG 2006/2008 32010KT
PROB40
TEMPO 2009/2018 32015G25KT
Pas de NOTAMs connus pour ce terrain.



MET'MAP, la Météo Aéronautique d'un coup d'oeil ! - Copyright ORBIFLY Décembre 2007 - Disclaimer

ORBIFLY MET'MAP TEAM :

Programmation & Développement : Alexandra Zaïnal
Conception & Développement : Baudouin d'Aumeries
Co-Programmation & Développement : Marc-Olivier Méhu
Soutien technique & logistique : Manuel Goepfert

Contact : metmap@orbifly.com




SOURCES & CREDITS :

   NOAA